sensor_id;sensor_type;location;lat;lon;timestamp;P1;P2;P0
76661;PMS5003;65579;45.534;6.212;2023-03-01T00:01:51;102;85;
76661;PMS5003;65579;45.534;6.212;2023-03-01T00:04:17;114;96;
76661;PMS5003;65579;45.534;6.212;2023-03-01T00:06:42;121;109;
76661;PMS5003;65579;45.534;6.212;2023-03-01T00:09:08;107;90;
76661;PMS5003;65579;45.534;6.212;2023-03-01T00:11:33;101;88;
76661;PMS5003;65579;45.534;6.212;2023-03-01T00:13:59;95;86;
76661;PMS5003;65579;45.534;6.212;2023-03-01T00:16:25;70;66;
76661;PMS5003;65579;45.534;6.212;2023-03-01T00:18:50;79;72;
76661;PMS5003;65579;45.534;6.212;2023-03-01T00:21:16;86;83;
76661;PMS5003;65579;45.534;6.212;2023-03-01T00:23:41;95;90;
76661;PMS5003;65579;45.534;6.212;2023-03-01T00:26:07;97;92;
76661;PMS5003;65579;45.534;6.212;2023-03-01T00:28:32;119;104;
76661;PMS5003;65579;45.534;6.212;2023-03-01T00:30:57;124;113;
76661;PMS5003;65579;45.534;6.212;2023-03-01T00:33:22;124;104;
76661;PMS5003;65579;45.534;6.212;2023-03-01T00:35:47;120;107;
76661;PMS5003;65579;45.534;6.212;2023-03-01T00:38:13;116;106;
76661;PMS5003;65579;45.534;6.212;2023-03-01T00:40:38;110;100;
76661;PMS5003;65579;45.534;6.212;2023-03-01T00:43:04;112;108;
76661;PMS5003;65579;45.534;6.212;2023-03-01T00:45:29;129;112;
76661;PMS5003;65579;45.534;6.212;2023-03-01T00:47:55;132;123;
76661;PMS5003;65579;45.534;6.212;2023-03-01T00:50:21;152;126;
76661;PMS5003;65579;45.534;6.212;2023-03-01T00:52:46;134;112;
76661;PMS5003;65579;45.534;6.212;2023-03-01T00:55:11;121;112;
76661;PMS5003;65579;45.534;6.212;2023-03-01T00:57:36;106;98;
76661;PMS5003;65579;45.534;6.212;2023-03-01T01:00:03;111;100;
76661;PMS5003;65579;45.534;6.212;2023-03-01T01:02:27;102;91;
76661;PMS5003;65579;45.534;6.212;2023-03-01T01:04:52;109;96;
76661;PMS5003;65579;45.534;6.212;2023-03-01T01:07:18;114;96;
76661;PMS5003;65579;45.534;6.212;2023-03-01T01:09:43;109;100;
76661;PMS5003;65579;45.534;6.212;2023-03-01T01:12:09;85;79;
76661;PMS5003;65579;45.534;6.212;2023-03-01T01:14:35;107;90;
76661;PMS5003;65579;45.534;6.212;2023-03-01T01:17:00;101;93;
76661;PMS5003;65579;45.534;6.212;2023-03-01T01:19:26;97;92;
76661;PMS5003;65579;45.534;6.212;2023-03-01T01:21:51;99;82;
76661;PMS5003;65579;45.534;6.212;2023-03-01T01:24:16;98;91;
76661;PMS5003;65579;45.534;6.212;2023-03-01T01:26:41;89;84;
76661;PMS5003;65579;45.534;6.212;2023-03-01T01:29:07;100;85;
76661;PMS5003;65579;45.534;6.212;2023-03-01T01:31:32;94;89;
76661;PMS5003;65579;45.534;6.212;2023-03-01T01:33:58;102;85;
76661;PMS5003;65579;45.534;6.212;2023-03-01T01:36:23;89;85;
76661;PMS5003;65579;45.534;6.212;2023-03-01T01:38:49;96;87;
76661;PMS5003;65579;45.534;6.212;2023-03-01T01:41:15;92;81;
76661;PMS5003;65579;45.534;6.212;2023-03-01T01:43:41;93;89;
76661;PMS5003;65579;45.534;6.212;2023-03-01T01:46:06;99;87;
76661;PMS5003;65579;45.534;6.212;2023-03-01T01:48:34;98;88;
76661;PMS5003;65579;45.534;6.212;2023-03-01T01:50:57;97;83;
76661;PMS5003;65579;45.534;6.212;2023-03-01T01:53:21;89;81;
76661;PMS5003;65579;45.534;6.212;2023-03-01T01:55:47;90;80;
76661;PMS5003;65579;45.534;6.212;2023-03-01T01:58:13;104;87;
76661;PMS5003;65579;45.534;6.212;2023-03-01T02:00:38;82;77;
76661;PMS5003;65579;45.534;6.212;2023-03-01T02:03:05;103;88;
76661;PMS5003;65579;45.534;6.212;2023-03-01T02:05:33;94;86;
76661;PMS5003;65579;45.534;6.212;2023-03-01T02:07:54;96;82;
76661;PMS5003;65579;45.534;6.212;2023-03-01T02:10:20;76;71;
76661;PMS5003;65579;45.534;6.212;2023-03-01T02:12:45;88;82;
76661;PMS5003;65579;45.534;6.212;2023-03-01T02:15:11;78;62;
76661;PMS5003;65579;45.534;6.212;2023-03-01T02:17:36;87;74;
76661;PMS5003;65579;45.534;6.212;2023-03-01T02:20:04;80;72;
76661;PMS5003;65579;45.534;6.212;2023-03-01T02:22:28;75;65;
76661;PMS5003;65579;45.534;6.212;2023-03-01T02:24:56;74;65;
76661;PMS5003;65579;45.534;6.212;2023-03-01T02:27:17;80;73;
76661;PMS5003;65579;45.534;6.212;2023-03-01T02:29:43;73;63;
76661;PMS5003;65579;45.534;6.212;2023-03-01T02:32:08;83;74;
76661;PMS5003;65579;45.534;6.212;2023-03-01T02:34:34;97;84;
76661;PMS5003;65579;45.534;6.212;2023-03-01T02:37:01;91;83;
76661;PMS5003;65579;45.534;6.212;2023-03-01T02:39:26;95;78;
76661;PMS5003;65579;45.534;6.212;2023-03-01T02:41:51;102;85;
76661;PMS5003;65579;45.534;6.212;2023-03-01T02:44:16;100;92;
76661;PMS5003;65579;45.534;6.212;2023-03-01T02:46:42;120;95;
76661;PMS5003;65579;45.534;6.212;2023-03-01T02:51:38;101;91;
76661;PMS5003;65579;45.534;6.212;2023-03-01T02:54:03;83;77;
76661;PMS5003;65579;45.534;6.212;2023-03-01T02:56:24;81;76;
76661;PMS5003;65579;45.534;6.212;2023-03-01T02:58:49;79;76;
76661;PMS5003;65579;45.534;6.212;2023-03-01T03:01:15;87;79;
76661;PMS5003;65579;45.534;6.212;2023-03-01T03:03:41;88;78;
76661;PMS5003;65579;45.534;6.212;2023-03-01T03:06:07;101;87;
76661;PMS5003;65579;45.534;6.212;2023-03-01T03:08:32;94;88;
76661;PMS5003;65579;45.534;6.212;2023-03-01T03:10:58;99;85;
76661;PMS5003;65579;45.534;6.212;2023-03-01T03:13:23;86;81;
76661;PMS5003;65579;45.534;6.212;2023-03-01T03:15:48;86;79;
76661;PMS5003;65579;45.534;6.212;2023-03-01T03:18:14;89;76;
76661;PMS5003;65579;45.534;6.212;2023-03-01T03:20:40;85;73;
76661;PMS5003;65579;45.534;6.212;2023-03-01T03:23:05;83;70;
76661;PMS5003;65579;45.534;6.212;2023-03-01T03:25:31;83;70;
76661;PMS5003;65579;45.534;6.212;2023-03-01T03:27:56;94;83;
76661;PMS5003;65579;45.534;6.212;2023-03-01T03:30:23;77;76;
76661;PMS5003;65579;45.534;6.212;2023-03-01T03:32:48;81;71;
76661;PMS5003;65579;45.534;6.212;2023-03-01T03:35:13;81;75;
76661;PMS5003;65579;45.534;6.212;2023-03-01T03:37:38;89;79;
76661;PMS5003;65579;45.534;6.212;2023-03-01T03:40:04;92;84;
76661;PMS5003;65579;45.534;6.212;2023-03-01T03:42:28;91;81;
76661;PMS5003;65579;45.534;6.212;2023-03-01T03:44:54;80;74;
76661;PMS5003;65579;45.534;6.212;2023-03-01T03:47:20;95;83;
76661;PMS5003;65579;45.534;6.212;2023-03-01T03:49:45;93;83;
76661;PMS5003;65579;45.534;6.212;2023-03-01T03:52:11;87;80;
76661;PMS5003;65579;45.534;6.212;2023-03-01T03:54:36;86;75;
76661;PMS5003;65579;45.534;6.212;2023-03-01T03:57:01;89;78;
76661;PMS5003;65579;45.534;6.212;2023-03-01T03:59:27;88;79;
76661;PMS5003;65579;45.534;6.212;2023-03-01T04:01:52;83;73;
76661;PMS5003;65579;45.534;6.212;2023-03-01T04:04:18;97;83;
76661;PMS5003;65579;45.534;6.212;2023-03-01T04:06:44;87;83;
76661;PMS5003;65579;45.534;6.212;2023-03-01T04:09:09;85;78;
76661;PMS5003;65579;45.534;6.212;2023-03-01T04:11:35;73;67;
76661;PMS5003;65579;45.534;6.212;2023-03-01T04:14:00;80;72;
76661;PMS5003;65579;45.534;6.212;2023-03-01T04:16:25;84;75;
76661;PMS5003;65579;45.534;6.212;2023-03-01T04:18:50;90;76;
76661;PMS5003;65579;45.534;6.212;2023-03-01T04:21:16;98;83;
76661;PMS5003;65579;45.534;6.212;2023-03-01T04:23:42;99;88;
76661;PMS5003;65579;45.534;6.212;2023-03-01T04:26:07;103;96;
76661;PMS5003;65579;45.534;6.212;2023-03-01T04:28:34;93;86;
76661;PMS5003;65579;45.534;6.212;2023-03-01T04:31:01;99;90;
76661;PMS5003;65579;45.534;6.212;2023-03-01T04:33:24;97;93;
76661;PMS5003;65579;45.534;6.212;2023-03-01T04:35:50;101;94;
76661;PMS5003;65579;45.534;6.212;2023-03-01T04:38:15;98;83;
76661;PMS5003;65579;45.534;6.212;2023-03-01T04:40:40;84;76;
76661;PMS5003;65579;45.534;6.212;2023-03-01T04:43:06;94;80;
76661;PMS5003;65579;45.534;6.212;2023-03-01T04:45:32;93;85;
76661;PMS5003;65579;45.534;6.212;2023-03-01T04:47:58;109;93;
76661;PMS5003;65579;45.534;6.212;2023-03-01T04:50:23;95;92;
76661;PMS5003;65579;45.534;6.212;2023-03-01T04:52:49;100;97;
76661;PMS5003;65579;45.534;6.212;2023-03-01T04:55:15;83;73;
76661;PMS5003;65579;45.534;6.212;2023-03-01T04:57:40;89;82;
76661;PMS5003;65579;45.534;6.212;2023-03-01T05:00:07;90;82;
76661;PMS5003;65579;45.534;6.212;2023-03-01T05:02:31;91;87;
76661;PMS5003;65579;45.534;6.212;2023-03-01T05:04:56;90;86;
76661;PMS5003;65579;45.534;6.212;2023-03-01T05:07:21;90;80;
76661;PMS5003;65579;45.534;6.212;2023-03-01T05:09:47;92;89;
76661;PMS5003;65579;45.534;6.212;2023-03-01T05:12:13;102;93;
76661;PMS5003;65579;45.534;6.212;2023-03-01T05:14:38;85;77;
76661;PMS5003;65579;45.534;6.212;2023-03-01T05:17:04;94;89;
76661;PMS5003;65579;45.534;6.212;2023-03-01T05:19:29;97;84;
76661;PMS5003;65579;45.534;6.212;2023-03-01T05:21:54;92;83;
76661;PMS5003;65579;45.534;6.212;2023-03-01T05:24:20;86;78;
76661;PMS5003;65579;45.534;6.212;2023-03-01T05:26:45;104;93;
76661;PMS5003;65579;45.534;6.212;2023-03-01T05:29:10;89;79;
76661;PMS5003;65579;45.534;6.212;2023-03-01T05:31:35;95;86;
76661;PMS5003;65579;45.534;6.212;2023-03-01T05:34:01;85;72;
76661;PMS5003;65579;45.534;6.212;2023-03-01T05:36:27;97;83;
76661;PMS5003;65579;45.534;6.212;2023-03-01T05:38:52;94;88;
76661;PMS5003;65579;45.534;6.212;2023-03-01T05:41:18;93;81;
76661;PMS5003;65579;45.534;6.212;2023-03-01T05:43:44;102;83;
76661;PMS5003;65579;45.534;6.212;2023-03-01T05:46:09;85;80;
76661;PMS5003;65579;45.534;6.212;2023-03-01T05:48:35;77;71;
76661;PMS5003;65579;45.534;6.212;2023-03-01T05:51:00;83;74;
76661;PMS5003;65579;45.534;6.212;2023-03-01T05:53:25;89;77;
76661;PMS5003;65579;45.534;6.212;2023-03-01T05:55:50;101;89;
76661;PMS5003;65579;45.534;6.212;2023-03-01T05:58:18;107;94;
76661;PMS5003;65579;45.534;6.212;2023-03-01T06:00:42;98;88;
76661;PMS5003;65579;45.534;6.212;2023-03-01T06:03:09;100;83;
76661;PMS5003;65579;45.534;6.212;2023-03-01T06:05:32;91;83;
76661;PMS5003;65579;45.534;6.212;2023-03-01T06:07:59;104;87;
76661;PMS5003;65579;45.534;6.212;2023-03-01T06:10:23;110;88;
76661;PMS5003;65579;45.534;6.212;2023-03-01T06:12:48;98;83;
76661;PMS5003;65579;45.534;6.212;2023-03-01T06:15:14;98;85;
76661;PMS5003;65579;45.534;6.212;2023-03-01T06:17:39;99;87;
76661;PMS5003;65579;45.534;6.212;2023-03-01T06:20:05;97;88;
76661;PMS5003;65579;45.534;6.212;2023-03-01T06:22:30;85;80;
76661;PMS5003;65579;45.534;6.212;2023-03-01T06:24:56;78;78;
76661;PMS5003;65579;45.534;6.212;2023-03-01T06:27:21;94;85;
76661;PMS5003;65579;45.534;6.212;2023-03-01T06:29:46;92;84;
76661;PMS5003;65579;45.534;6.212;2023-03-01T06:32:12;107;101;
76661;PMS5003;65579;45.534;6.212;2023-03-01T06:34:37;101;92;
76661;PMS5003;65579;45.534;6.212;2023-03-01T06:37:03;102;93;
76661;PMS5003;65579;45.534;6.212;2023-03-01T06:39:29;106;95;
76661;PMS5003;65579;45.534;6.212;2023-03-01T06:41:54;118;113;
76661;PMS5003;65579;45.534;6.212;2023-03-01T06:44:20;121;105;
76661;PMS5003;65579;45.534;6.212;2023-03-01T06:46:45;114;105;
76661;PMS5003;65579;45.534;6.212;2023-03-01T06:49:11;117;105;
76661;PMS5003;65579;45.534;6.212;2023-03-01T06:51:36;112;98;
76661;PMS5003;65579;45.534;6.212;2023-03-01T06:54:03;110;102;
76661;PMS5003;65579;45.534;6.212;2023-03-01T06:56:27;87;84;
76661;PMS5003;65579;45.534;6.212;2023-03-01T06:58:53;91;86;
76661;PMS5003;65579;45.534;6.212;2023-03-01T07:01:19;96;89;
76661;PMS5003;65579;45.534;6.212;2023-03-01T07:03:44;91;84;
76661;PMS5003;65579;45.534;6.212;2023-03-01T07:06:10;106;92;
76661;PMS5003;65579;45.534;6.212;2023-03-01T07:08:35;100;96;
76661;PMS5003;65579;45.534;6.212;2023-03-01T07:11:00;94;84;
76661;PMS5003;65579;45.534;6.212;2023-03-01T07:13:25;96;87;
76661;PMS5003;65579;45.534;6.212;2023-03-01T07:15:51;83;76;
76661;PMS5003;65579;45.534;6.212;2023-03-01T07:18:16;89;80;
76661;PMS5003;65579;45.534;6.212;2023-03-01T07:20:42;81;79;
76661;PMS5003;65579;45.534;6.212;2023-03-01T07:23:07;86;80;
76661;PMS5003;65579;45.534;6.212;2023-03-01T07:25:33;100;89;
76661;PMS5003;65579;45.534;6.212;2023-03-01T07:27:58;86;81;
76661;PMS5003;65579;45.534;6.212;2023-03-01T07:30:23;102;88;
76661;PMS5003;65579;45.534;6.212;2023-03-01T07:32:48;90;83;
76661;PMS5003;65579;45.534;6.212;2023-03-01T07:35:14;81;78;
76661;PMS5003;65579;45.534;6.212;2023-03-01T07:37:40;86;80;
76661;PMS5003;65579;45.534;6.212;2023-03-01T07:40:06;105;98;
76661;PMS5003;65579;45.534;6.212;2023-03-01T07:42:31;90;82;
76661;PMS5003;65579;45.534;6.212;2023-03-01T07:44:56;92;86;
76661;PMS5003;65579;45.534;6.212;2023-03-01T07:47:22;96;89;
76661;PMS5003;65579;45.534;6.212;2023-03-01T07:49:47;88;81;
76661;PMS5003;65579;45.534;6.212;2023-03-01T07:52:14;161;148;
76661;PMS5003;65579;45.534;6.212;2023-03-01T07:54:41;100;95;
76661;PMS5003;65579;45.534;6.212;2023-03-01T07:57:04;89;84;
76661;PMS5003;65579;45.534;6.212;2023-03-01T07:59:29;92;84;
76661;PMS5003;65579;45.534;6.212;2023-03-01T08:01:54;94;87;
76661;PMS5003;65579;45.534;6.212;2023-03-01T08:04:20;90;85;
76661;PMS5003;65579;45.534;6.212;2023-03-01T08:06:45;87;78;
76661;PMS5003;65579;45.534;6.212;2023-03-01T08:09:10;99;87;
76661;PMS5003;65579;45.534;6.212;2023-03-01T08:11:36;101;90;
76661;PMS5003;65579;45.534;6.212;2023-03-01T08:14:03;103;96;
76661;PMS5003;65579;45.534;6.212;2023-03-01T08:16:27;112;97;
76661;PMS5003;65579;45.534;6.212;2023-03-01T08:18:54;93;85;
76661;PMS5003;65579;45.534;6.212;2023-03-01T08:21:17;99;91;
76661;PMS5003;65579;45.534;6.212;2023-03-01T08:23:43;101;89;
76661;PMS5003;65579;45.534;6.212;2023-03-01T08:26:12;95;91;
76661;PMS5003;65579;45.534;6.212;2023-03-01T08:28:33;115;97;
76661;PMS5003;65579;45.534;6.212;2023-03-01T08:30:59;95;90;
76661;PMS5003;65579;45.534;6.212;2023-03-01T08:33:25;106;95;
76661;PMS5003;65579;45.534;6.212;2023-03-01T08:38:16;107;101;
76661;PMS5003;65579;45.534;6.212;2023-03-01T08:40:41;103;96;
76661;PMS5003;65579;45.534;6.212;2023-03-01T08:43:07;93;84;
76661;PMS5003;65579;45.534;6.212;2023-03-01T08:45:33;86;73;
76661;PMS5003;65579;45.534;6.212;2023-03-01T08:47:58;87;78;
76661;PMS5003;65579;45.534;6.212;2023-03-01T08:50:24;80;75;
76661;PMS5003;65579;45.534;6.212;2023-03-01T08:52:49;74;74;
76661;PMS5003;65579;45.534;6.212;2023-03-01T08:55:14;76;68;
76661;PMS5003;65579;45.534;6.212;2023-03-01T08:57:39;89;83;
76661;PMS5003;65579;45.534;6.212;2023-03-01T09:00:05;83;71;
76661;PMS5003;65579;45.534;6.212;2023-03-01T09:02:30;98;85;
76661;PMS5003;65579;45.534;6.212;2023-03-01T09:04:55;81;76;
76661;PMS5003;65579;45.534;6.212;2023-03-01T09:07:20;79;71;
76661;PMS5003;65579;45.534;6.212;2023-03-01T09:09:46;89;80;
76661;PMS5003;65579;45.534;6.212;2023-03-01T09:12:11;98;90;
76661;PMS5003;65579;45.534;6.212;2023-03-01T09:14:36;84;77;
76661;PMS5003;65579;45.534;6.212;2023-03-01T09:17:01;82;74;
76661;PMS5003;65579;45.534;6.212;2023-03-01T09:19:27;82;78;
76661;PMS5003;65579;45.534;6.212;2023-03-01T09:21:52;87;87;
76661;PMS5003;65579;45.534;6.212;2023-03-01T09:24:19;89;84;
76661;PMS5003;65579;45.534;6.212;2023-03-01T09:26:43;80;67;
76661;PMS5003;65579;45.534;6.212;2023-03-01T09:29:09;84;76;
76661;PMS5003;65579;45.534;6.212;2023-03-01T09:31:34;67;58;
76661;PMS5003;65579;45.534;6.212;2023-03-01T09:34:00;80;76;
76661;PMS5003;65579;45.534;6.212;2023-03-01T09:36:26;76;73;
76661;PMS5003;65579;45.534;6.212;2023-03-01T09:38:51;77;71;
76661;PMS5003;65579;45.534;6.212;2023-03-01T09:41:21;74;69;
76661;PMS5003;65579;45.534;6.212;2023-03-01T09:43:43;78;72;
76661;PMS5003;65579;45.534;6.212;2023-03-01T09:46:08;77;71;
76661;PMS5003;65579;45.534;6.212;2023-03-01T09:48:33;93;81;
76661;PMS5003;65579;45.534;6.212;2023-03-01T09:50:58;75;68;
76661;PMS5003;65579;45.534;6.212;2023-03-01T09:53:25;61;57;
76661;PMS5003;65579;45.534;6.212;2023-03-01T09:55:50;88;73;
76661;PMS5003;65579;45.534;6.212;2023-03-01T10:00:41;80;70;
76661;PMS5003;65579;45.534;6.212;2023-03-01T10:03:08;71;67;
76661;PMS5003;65579;45.534;6.212;2023-03-01T10:05:34;76;68;
76661;PMS5003;65579;45.534;6.212;2023-03-01T10:07:58;79;71;
76661;PMS5003;65579;45.534;6.212;2023-03-01T10:10:23;71;66;
76661;PMS5003;65579;45.534;6.212;2023-03-01T10:12:46;76;68;
76661;PMS5003;65579;45.534;6.212;2023-03-01T10:15:14;78;68;
76661;PMS5003;65579;45.534;6.212;2023-03-01T10:17:39;71;65;
76661;PMS5003;65579;45.534;6.212;2023-03-01T10:22:29;66;62;
76661;PMS5003;65579;45.534;6.212;2023-03-01T10:24:54;79;73;
76661;PMS5003;65579;45.534;6.212;2023-03-01T10:27:21;66;63;
76661;PMS5003;65579;45.534;6.212;2023-03-01T10:29:46;71;66;
76661;PMS5003;65579;45.534;6.212;2023-03-01T10:32:10;81;77;
76661;PMS5003;65579;45.534;6.212;2023-03-01T10:34:36;67;67;
76661;PMS5003;65579;45.534;6.212;2023-03-01T10:37:09;68;65;
76661;PMS5003;65579;45.534;6.212;2023-03-01T10:39:26;60;54;
76661;PMS5003;65579;45.534;6.212;2023-03-01T10:41:56;71;59;
76661;PMS5003;65579;45.534;6.212;2023-03-01T10:46:43;69;62;
76661;PMS5003;65579;45.534;6.212;2023-03-01T10:49:13;75;70;
76661;PMS5003;65579;45.534;6.212;2023-03-01T10:51:39;75;70;
76661;PMS5003;65579;45.534;6.212;2023-03-01T10:54:00;72;64;
76661;PMS5003;65579;45.534;6.212;2023-03-01T10:56:25;74;66;
76661;PMS5003;65579;45.534;6.212;2023-03-01T10:58:57;78;67;
76661;PMS5003;65579;45.534;6.212;2023-03-01T11:01:24;65;59;
76661;PMS5003;65579;45.534;6.212;2023-03-01T11:03:41;66;61;
76661;PMS5003;65579;45.534;6.212;2023-03-01T11:08:33;64;59;
76661;PMS5003;65579;45.534;6.212;2023-03-01T11:18:19;65;58;
76661;PMS5003;65579;45.534;6.212;2023-03-01T11:20:40;66;57;
76661;PMS5003;65579;45.534;6.212;2023-03-01T11:25:31;67;56;
76661;PMS5003;65579;45.534;6.212;2023-03-01T11:27:55;69;68;
76661;PMS5003;65579;45.534;6.212;2023-03-01T11:30:22;67;57;
76661;PMS5003;65579;45.534;6.212;2023-03-01T11:32:47;64;58;
76661;PMS5003;65579;45.534;6.212;2023-03-01T11:35:14;61;56;
76661;PMS5003;65579;45.534;6.212;2023-03-01T11:37:38;68;60;
76661;PMS5003;65579;45.534;6.212;2023-03-01T11:40:09;66;54;
76661;PMS5003;65579;45.534;6.212;2023-03-01T11:42:29;68;62;
76661;PMS5003;65579;45.534;6.212;2023-03-01T11:44:54;61;60;
76661;PMS5003;65579;45.534;6.212;2023-03-01T11:47:23;66;58;
76661;PMS5003;65579;45.534;6.212;2023-03-01T11:49:51;66;59;
76661;PMS5003;65579;45.534;6.212;2023-03-01T11:52:13;66;61;
76661;PMS5003;65579;45.534;6.212;2023-03-01T11:54:41;62;55;
76661;PMS5003;65579;45.534;6.212;2023-03-01T11:57:04;70;63;
76661;PMS5003;65579;45.534;6.212;2023-03-01T11:59:33;66;59;
76661;PMS5003;65579;45.534;6.212;2023-03-01T12:01:56;68;62;
76661;PMS5003;65579;45.534;6.212;2023-03-01T12:06:47;64;62;
76661;PMS5003;65579;45.534;6.212;2023-03-01T12:09:14;61;54;
76661;PMS5003;65579;45.534;6.212;2023-03-01T12:11:39;67;65;
76661;PMS5003;65579;45.534;6.212;2023-03-01T12:14:06;67;57;
76661;PMS5003;65579;45.534;6.212;2023-03-01T12:16:29;72;59;
76661;PMS5003;65579;45.534;6.212;2023-03-01T12:18:55;62;55;
76661;PMS5003;65579;45.534;6.212;2023-03-01T12:21:20;68;60;
76661;PMS5003;65579;45.534;6.212;2023-03-01T12:23:52;61;58;
76661;PMS5003;65579;45.534;6.212;2023-03-01T12:26:09;62;60;
76661;PMS5003;65579;45.534;6.212;2023-03-01T12:28:38;63;55;
76661;PMS5003;65579;45.534;6.212;2023-03-01T12:33:26;61;59;
76661;PMS5003;65579;45.534;6.212;2023-03-01T12:35:58;76;67;
76661;PMS5003;65579;45.534;6.212;2023-03-01T12:38:20;60;55;
76661;PMS5003;65579;45.534;6.212;2023-03-01T12:40:46;61;58;
76661;PMS5003;65579;45.534;6.212;2023-03-01T12:43:09;61;60;
76661;PMS5003;65579;45.534;6.212;2023-03-01T12:45:37;63;60;
76661;PMS5003;65579;45.534;6.212;2023-03-01T12:48:10;71;61;
76661;PMS5003;65579;45.534;6.212;2023-03-01T12:50:23;62;58;
76661;PMS5003;65579;45.534;6.212;2023-03-01T12:52:52;59;52;
76661;PMS5003;65579;45.534;6.212;2023-03-01T12:55:20;65;61;
76661;PMS5003;65579;45.534;6.212;2023-03-01T12:57:40;68;64;
76661;PMS5003;65579;45.534;6.212;2023-03-01T13:00:09;76;67;
76661;PMS5003;65579;45.534;6.212;2023-03-01T13:02:31;56;53;
76661;PMS5003;65579;45.534;6.212;2023-03-01T13:05:00;57;54;
76661;PMS5003;65579;45.534;6.212;2023-03-01T13:07:25;62;60;
76661;PMS5003;65579;45.534;6.212;2023-03-01T13:09:48;64;61;
76661;PMS5003;65579;45.534;6.212;2023-03-01T13:14:42;62;57;
76661;PMS5003;65579;45.534;6.212;2023-03-01T13:17:02;64;62;
76661;PMS5003;65579;45.534;6.212;2023-03-01T13:19:29;66;62;
76661;PMS5003;65579;45.534;6.212;2023-03-01T13:21:54;70;61;
76661;PMS5003;65579;45.534;6.212;2023-03-01T13:24:28;59;52;
76661;PMS5003;65579;45.534;6.212;2023-03-01T13:29:11;68;65;
76661;PMS5003;65579;45.534;6.212;2023-03-01T13:34:00;57;53;
76661;PMS5003;65579;45.534;6.212;2023-03-01T13:38:55;58;54;
76661;PMS5003;65579;45.534;6.212;2023-03-01T13:41:17;70;62;
76661;PMS5003;65579;45.534;6.212;2023-03-01T13:43:43;58;53;
76661;PMS5003;65579;45.534;6.212;2023-03-01T13:46:08;60;60;
76661;PMS5003;65579;45.534;6.212;2023-03-01T13:48:33;59;55;
76661;PMS5003;65579;45.534;6.212;2023-03-01T13:50:59;61;55;
76661;PMS5003;65579;45.534;6.212;2023-03-01T13:53:25;64;57;
76661;PMS5003;65579;45.534;6.212;2023-03-01T13:55:51;54;49;
76661;PMS5003;65579;45.534;6.212;2023-03-01T13:58:16;63;61;
76661;PMS5003;65579;45.534;6.212;2023-03-01T14:00:40;59;57;
76661;PMS5003;65579;45.534;6.212;2023-03-01T14:03:12;66;59;
76661;PMS5003;65579;45.534;6.212;2023-03-01T14:05:32;53;50;
76661;PMS5003;65579;45.534;6.212;2023-03-01T14:07:57;59;55;
76661;PMS5003;65579;45.534;6.212;2023-03-01T14:10:22;52;48;
76661;PMS5003;65579;45.534;6.212;2023-03-01T14:12:48;59;57;
76661;PMS5003;65579;45.534;6.212;2023-03-01T14:15:15;63;54;
76661;PMS5003;65579;45.534;6.212;2023-03-01T14:17:43;63;59;
76661;PMS5003;65579;45.534;6.212;2023-03-01T14:22:31;62;57;
76661;PMS5003;65579;45.534;6.212;2023-03-01T14:24:56;57;52;
76661;PMS5003;65579;45.534;6.212;2023-03-01T14:27:22;59;58;
76661;PMS5003;65579;45.534;6.212;2023-03-01T14:32:17;56;48;
76661;PMS5003;65579;45.534;6.212;2023-03-01T14:34:43;58;57;
76661;PMS5003;65579;45.534;6.212;2023-03-01T14:39:29;72;65;
76661;PMS5003;65579;45.534;6.212;2023-03-01T14:41:54;45;43;
76661;PMS5003;65579;45.534;6.212;2023-03-01T14:44:21;56;50;
76661;PMS5003;65579;45.534;6.212;2023-03-01T14:46:46;57;54;
76661;PMS5003;65579;45.534;6.212;2023-03-01T14:49:12;68;61;
76661;PMS5003;65579;45.534;6.212;2023-03-01T14:51:38;66;56;
76661;PMS5003;65579;45.534;6.212;2023-03-01T14:54:04;61;53;
76661;PMS5003;65579;45.534;6.212;2023-03-01T14:56:28;61;54;
76661;PMS5003;65579;45.534;6.212;2023-03-01T14:58:54;63;54;
76661;PMS5003;65579;45.534;6.212;2023-03-01T15:01:20;60;57;
76661;PMS5003;65579;45.534;6.212;2023-03-01T15:03:45;66;60;
76661;PMS5003;65579;45.534;6.212;2023-03-01T15:06:11;58;55;
76661;PMS5003;65579;45.534;6.212;2023-03-01T15:08:36;60;49;
76661;PMS5003;65579;45.534;6.212;2023-03-01T15:11:02;66;56;
76661;PMS5003;65579;45.534;6.212;2023-03-01T15:13:29;62;56;
76661;PMS5003;65579;45.534;6.212;2023-03-01T15:15:52;54;54;
76661;PMS5003;65579;45.534;6.212;2023-03-01T15:18:18;50;49;
76661;PMS5003;65579;45.534;6.212;2023-03-01T15:20:43;55;47;
76661;PMS5003;65579;45.534;6.212;2023-03-01T15:25:33;54;48;
76661;PMS5003;65579;45.534;6.212;2023-03-01T15:27:59;62;57;
76661;PMS5003;65579;45.534;6.212;2023-03-01T15:30:25;57;53;
76661;PMS5003;65579;45.534;6.212;2023-03-01T15:33:15;68;65;
76661;PMS5003;65579;45.534;6.212;2023-03-01T15:37:43;59;54;
76661;PMS5003;65579;45.534;6.212;2023-03-01T15:42:36;60;52;
76661;PMS5003;65579;45.534;6.212;2023-03-01T15:47:24;62;57;
76661;PMS5003;65579;45.534;6.212;2023-03-01T15:49:48;55;52;
76661;PMS5003;65579;45.534;6.212;2023-03-01T15:52:15;61;55;
76661;PMS5003;65579;45.534;6.212;2023-03-01T15:54:39;60;59;
76661;PMS5003;65579;45.534;6.212;2023-03-01T15:57:05;65;60;
76661;PMS5003;65579;45.534;6.212;2023-03-01T15:59:30;67;62;
76661;PMS5003;65579;45.534;6.212;2023-03-01T16:01:56;59;54;
76661;PMS5003;65579;45.534;6.212;2023-03-01T16:04:21;56;50;
76661;PMS5003;65579;45.534;6.212;2023-03-01T16:06:47;50;47;
76661;PMS5003;65579;45.534;6.212;2023-03-01T16:09:12;52;48;
76661;PMS5003;65579;45.534;6.212;2023-03-01T16:11:38;59;57;
76661;PMS5003;65579;45.534;6.212;2023-03-01T16:14:03;63;54;
76661;PMS5003;65579;45.534;6.212;2023-03-01T16:16:28;54;49;
76661;PMS5003;65579;45.534;6.212;2023-03-01T16:18:53;67;60;
76661;PMS5003;65579;45.534;6.212;2023-03-01T16:21:20;62;54;
76661;PMS5003;65579;45.534;6.212;2023-03-01T16:23:44;58;50;
76661;PMS5003;65579;45.534;6.212;2023-03-01T16:26:10;64;55;
76661;PMS5003;65579;45.534;6.212;2023-03-01T16:28:35;68;59;
76661;PMS5003;65579;45.534;6.212;2023-03-01T16:31:01;71;58;
76661;PMS5003;65579;45.534;6.212;2023-03-01T16:33:26;57;53;
76661;PMS5003;65579;45.534;6.212;2023-03-01T16:35:51;54;51;
76661;PMS5003;65579;45.534;6.212;2023-03-01T16:38:17;58;51;
76661;PMS5003;65579;45.534;6.212;2023-03-01T16:40:46;65;59;
76661;PMS5003;65579;45.534;6.212;2023-03-01T16:43:08;60;51;
76661;PMS5003;65579;45.534;6.212;2023-03-01T16:45:34;58;54;
76661;PMS5003;65579;45.534;6.212;2023-03-01T16:47:59;58;56;
76661;PMS5003;65579;45.534;6.212;2023-03-01T16:50:24;50;45;
76661;PMS5003;65579;45.534;6.212;2023-03-01T16:52:50;72;62;
76661;PMS5003;65579;45.534;6.212;2023-03-01T16:55:16;58;52;
76661;PMS5003;65579;45.534;6.212;2023-03-01T16:57:41;60;55;